Time;durP1;ratioP1;P1;durP2;ratioP2;P2;SDS_P1;SDS_P2;PMS_P1;PMS_P2;Temp;Humidity;BMP_temperature;BMP_pressure;BME280_temperature;BME280_humidity;BME280_pressure;Samples;Min_cycle;Max_cycle;Signal;HPM_P1;HPM_P2
2022/10/29 00:01:38;;;;;;;;;;;16.30;95.10;;;;;;4966546;28;1327;-71
2022/10/29 00:04:06;;;;;;;;;;;16.40;95.30;;;;;;4970081;28;1902;-72
2022/10/29 00:06:34;;;;;;;;;;;16.30;95.30;;;;;;4963530;28;1583;-72
2022/10/29 00:09:02;;;;;;;;;;;16.30;95.20;;;;;;4967074;28;842;-72
2022/10/29 00:11:29;;;;;;;;;;;16.30;95.30;;;;;;4965006;28;1673;-71
2022/10/29 00:13:58;;;;;;;;;;;16.30;95.20;;;;;;4967911;28;1030;-72
2022/10/29 00:16:26;;;;;;;;;;;16.30;95.10;;;;;;4965580;28;1041;-71
2022/10/29 00:18:55;;;;;;;;;;;16.40;95.10;;;;;;4965552;28;1077;-72
2022/10/29 00:21:25;;;;;;;;;;;16.60;94.80;;;;;;4963781;28;1254;-72
2022/10/29 00:23:53;;;;;;;;;;;16.40;94.70;;;;;;4963548;28;1989;-73
2022/10/29 00:26:21;;;;;;;;;;;16.40;94.80;;;;;;4962568;28;1360;-72
2022/10/29 00:28:52;;;;;;;;;;;16.20;94.80;;;;;;4968977;28;1003;-73
2022/10/29 00:31:22;;;;;;;;;;;16.10;94.90;;;;;;4973607;28;1349;-72
2022/10/29 00:33:51;;;;;;;;;;;16.00;95.30;;;;;;4966293;28;1788;-71
2022/10/29 00:36:21;;;;;;;;;;;16.10;95.50;;;;;;4968421;28;1057;-72
2022/10/29 00:38:49;;;;;;;;;;;15.90;95.50;;;;;;4965762;28;1017;-71
2022/10/29 00:41:17;;;;;;;;;;;15.80;95.50;;;;;;4963068;28;1259;-72
2022/10/29 00:43:47;;;;;;;;;;;15.80;95.90;;;;;;4965153;28;1914;-71
2022/10/29 00:46:16;;;;;;;;;;;15.80;95.80;;;;;;4964709;28;998;-72
2022/10/29 00:48:46;;;;;;;;;;;15.80;95.80;;;;;;4961858;28;1081;-73
2022/10/29 00:51:15;;;;;;;;;;;15.80;95.80;;;;;;4965237;28;1205;-73
2022/10/29 00:53:45;;;;;;;;;;;15.40;95.60;;;;;;4964378;28;1014;-72
2022/10/29 00:56:13;;;;;;;;;;;15.90;95.50;;;;;;4962248;28;1013;-71
2022/10/29 00:58:41;;;;;;;;;;;15.70;95.70;;;;;;4963403;28;1334;-71
2022/10/29 01:01:09;;;;;;;;;;;15.80;96.30;;;;;;4967418;28;1698;-68
2022/10/29 01:03:37;;;;;;;;;;;15.60;96.00;;;;;;4965099;28;1906;-70
2022/10/29 01:06:05;;;;;;;;;;;15.80;95.90;;;;;;4967651;28;1001;-69
2022/10/29 01:08:33;;;;;;;;;;;15.60;95.80;;;;;;4966692;28;1326;-70
2022/10/29 01:11:07;;;;;;;;;;;15.50;96.00;;;;;;4971510;28;1269;-69
2022/10/29 01:13:46;;;;;;;;;;;15.60;96.30;;;;;;4974218;28;986;-68
2022/10/29 01:16:19;;;;;;;;;;;15.40;96.20;;;;;;4965860;28;1085;-69
2022/10/29 01:18:49;;;;;;;;;;;15.30;96.60;;;;;;4967019;28;971;-67
2022/10/29 01:21:30;;;;;;;;;;;15.30;96.70;;;;;;4961885;28;1269;-69
2022/10/29 01:24:19;;;;;;;;;;;15.30;96.80;;;;;;4964027;28;2001;-69
2022/10/29 01:27:02;;;;;;;;;;;15.20;96.80;;;;;;4964075;28;1216;-69
2022/10/29 01:29:39;;;;;;;;;;;15.20;96.80;;;;;;4961423;28;1090;-73
2022/10/29 01:32:09;;;;;;;;;;;15.20;97.00;;;;;;4970409;28;1287;-73
2022/10/29 01:34:42;;;;;;;;;;;15.40;97.20;;;;;;4964740;28;1015;-73
2022/10/29 01:37:13;;;;;;;;;;;15.10;97.00;;;;;;4962814;28;1978;-74
2022/10/29 01:39:43;;;;;;;;;;;15.10;97.10;;;;;;4964594;28;2109;-73
2022/10/29 01:42:12;;;;;;;;;;;15.00;97.40;;;;;;4963700;28;1890;-74
2022/10/29 01:44:43;;;;;;;;;;;15.00;97.20;;;;;;4966380;28;1985;-74
2022/10/29 01:47:14;;;;;;;;;;;15.00;97.30;;;;;;4961590;28;974;-74
2022/10/29 01:49:45;;;;;;;;;;;15.00;97.50;;;;;;4964031;28;1509;-74
2022/10/29 01:52:14;;;;;;;;;;;15.10;97.50;;;;;;4966397;28;1298;-73
2022/10/29 01:54:42;;;;;;;;;;;15.20;97.40;;;;;;4960890;28;1050;-74
2022/10/29 01:57:27;;;;;;;;;;;15.00;97.40;;;;;;4963492;28;1005;-73
2022/10/29 01:59:54;;;;;;;;;;;14.80;97.50;;;;;;4965474;28;1883;-73
2022/10/29 02:02:26;;;;;;;;;;;14.80;97.70;;;;;;4962602;28;1560;-74
2022/10/29 02:04:58;;;;;;;;;;;14.80;97.90;;;;;;4964011;28;1968;-73
2022/10/29 02:07:31;;;;;;;;;;;14.80;98.00;;;;;;4967078;28;997;-72
2022/10/29 02:10:03;;;;;;;;;;;14.80;98.30;;;;;;4971938;28;1080;-74
2022/10/29 02:12:33;;;;;;;;;;;14.70;98.30;;;;;;4968950;28;1752;-74
2022/10/29 02:21:14;;;;;;;;;;;14.60;98.00;;;;;;5019350;28;1224;-74
2022/10/29 02:23:41;;;;;;;;;;;14.60;98.00;;;;;;5018895;28;1961;-73
2022/10/29 02:26:09;;;;;;;;;;;14.50;98.30;;;;;;5015892;28;1096;-72
2022/10/29 02:28:37;;;;;;;;;;;14.70;98.40;;;;;;5016577;28;1484;-72
2022/10/29 02:31:05;;;;;;;;;;;14.60;98.30;;;;;;5016147;28;1260;-74
2022/10/29 02:33:32;;;;;;;;;;;14.60;98.10;;;;;;5015898;28;1909;-72
2022/10/29 02:36:00;;;;;;;;;;;14.60;98.30;;;;;;5016332;28;1870;-73
2022/10/29 02:38:29;;;;;;;;;;;14.50;98.10;;;;;;5014090;28;1887;-70
2022/10/29 02:40:56;;;;;;;;;;;14.50;98.40;;;;;;5005675;28;1219;-71
2022/10/29 02:43:24;;;;;;;;;;;14.60;98.30;;;;;;5010231;28;2031;-70
2022/10/29 02:46:06;;;;;;;;;;;14.60;98.30;;;;;;5005345;28;1907;-70
2022/10/29 02:48:34;;;;;;;;;;;14.50;98.30;;;;;;5004474;28;998;-71
2022/10/29 02:51:02;;;;;;;;;;;14.50;98.40;;;;;;5011108;28;1232;-72
2022/10/29 02:53:30;;;;;;;;;;;14.50;98.40;;;;;;5006546;28;1066;-73
2022/10/29 02:55:58;;;;;;;;;;;14.60;98.60;;;;;;5004920;28;1154;-70
2022/10/29 02:58:26;;;;;;;;;;;14.70;98.60;;;;;;5005199;28;1156;-71
2022/10/29 03:00:53;;;;;;;;;;;14.80;98.60;;;;;;5013676;28;1229;-70
2022/10/29 03:03:21;;;;;;;;;;;14.80;98.60;;;;;;5013690;28;1934;-70
2022/10/29 03:05:48;;;;;;;;;;;14.90;98.40;;;;;;5012172;28;1962;-71
2022/10/29 03:08:16;;;;;;;;;;;14.90;98.20;;;;;;5005868;28;1097;-71
2022/10/29 03:10:45;;;;;;;;;;;14.90;98.00;;;;;;5010795;28;1276;-70
2022/10/29 03:13:13;;;;;;;;;;;14.90;98.50;;;;;;5003946;28;1136;-70
2022/10/29 03:15:43;;;;;;;;;;;14.80;98.20;;;;;;5008931;28;1090;-72
2022/10/29 03:18:10;;;;;;;;;;;14.90;98.20;;;;;;5003868;28;1001;-72
2022/10/29 03:20:38;;;;;;;;;;;14.80;98.20;;;;;;5008674;28;1702;-69
2022/10/29 03:23:06;;;;;;;;;;;15.10;98.10;;;;;;5017439;28;1886;-69
2022/10/29 03:25:33;;;;;;;;;;;15.00;98.00;;;;;;5016005;28;2004;-69
2022/10/29 03:28:02;;;;;;;;;;;15.00;98.10;;;;;;5007758;28;1954;-71
2022/10/29 03:30:30;;;;;;;;;;;15.20;98.10;;;;;;5008382;28;2019;-71
2022/10/29 03:32:57;;;;;;;;;;;15.30;97.60;;;;;;5009065;28;1867;-71
2022/10/29 03:35:25;;;;;;;;;;;15.10;97.70;;;;;;5005833;28;1759;-71
2022/10/29 03:37:53;;;;;;;;;;;15.00;97.70;;;;;;5006368;28;2066;-67
2022/10/29 03:40:21;;;;;;;;;;;15.00;97.80;;;;;;5003396;28;1863;-66
2022/10/29 03:42:48;;;;;;;;;;;15.00;97.80;;;;;;5011592;28;1934;-66
2022/10/29 03:45:17;;;;;;;;;;;15.00;97.90;;;;;;5009949;28;1907;-74
2022/10/29 03:47:45;;;;;;;;;;;15.00;97.90;;;;;;5005986;28;1942;-64
2022/10/29 03:50:13;;;;;;;;;;;15.00;97.90;;;;;;5009429;28;1942;-64
2022/10/29 03:52:40;;;;;;;;;;;15.20;97.90;;;;;;5008644;28;1815;-63
2022/10/29 03:55:08;;;;;;;;;;;15.00;97.60;;;;;;5003673;28;1177;-64
2022/10/29 03:57:36;;;;;;;;;;;15.10;97.70;;;;;;5009696;28;1060;-64
2022/10/29 04:00:04;;;;;;;;;;;15.10;97.70;;;;;;5008537;28;1161;-63
2022/10/29 04:02:33;;;;;;;;;;;15.00;97.60;;;;;;5006765;28;1252;-63
2022/10/29 04:05:01;;;;;;;;;;;14.80;97.90;;;;;;5009749;28;1997;-63
2022/10/29 04:07:29;;;;;;;;;;;15.00;97.80;;;;;;5004211;28;1121;-65
2022/10/29 04:09:56;;;;;;;;;;;14.90;97.90;;;;;;5004811;28;986;-64
2022/10/29 04:12:24;;;;;;;;;;;15.10;97.70;;;;;;5005238;28;1208;-63
2022/10/29 04:14:51;;;;;;;;;;;15.00;97.70;;;;;;5009258;28;1950;-63
2022/10/29 04:17:19;;;;;;;;;;;15.20;97.60;;;;;;5006538;28;1974;-64
2022/10/29 04:19:48;;;;;;;;;;;15.00;97.40;;;;;;5008195;28;1152;-63
2022/10/29 04:22:15;;;;;;;;;;;15.00;97.50;;;;;;5008620;28;1281;-65
2022/10/29 04:25:03;;;;;;;;;;;14.90;97.20;;;;;;5009283;28;2276;-64
2022/10/29 04:27:53;;;;;;;;;;;14.80;97.20;;;;;;5007289;28;1137;-63
2022/10/29 04:30:41;;;;;;;;;;;14.90;96.90;;;;;;5004871;28;1536;-63
2022/10/29 04:33:08;;;;;;;;;;;14.60;97.10;;;;;;5003720;28;1037;-64
2022/10/29 04:35:37;;;;;;;;;;;14.70;96.90;;;;;;5006666;28;1111;-63
2022/10/29 04:38:07;;;;;;;;;;;14.50;96.90;;;;;;5006828;28;1007;-62
2022/10/29 04:40:35;;;;;;;;;;;14.50;97.00;;;;;;5011141;28;1279;-64
2022/10/29 04:43:03;;;;;;;;;;;14.40;96.90;;;;;;5010842;28;1165;-64
2022/10/29 04:45:31;;;;;;;;;;;14.40;96.90;;;;;;5003442;28;1910;-63
2022/10/29 04:47:59;;;;;;;;;;;14.30;96.70;;;;;;5001792;28;985;-64
2022/10/29 04:50:27;;;;;;;;;;;14.30;97.00;;;;;;5008483;28;1204;-64
2022/10/29 04:52:58;;;;;;;;;;;14.20;96.90;;;;;;5007383;28;1160;-64
2022/10/29 04:55:26;;;;;;;;;;;14.30;97.20;;;;;;5001667;28;1033;-64
2022/10/29 04:57:54;;;;;;;;;;;14.10;97.30;;;;;;5005152;28;981;-64
2022/10/29 05:00:23;;;;;;;;;;;13.90;97.50;;;;;;5001288;28;1272;-64
2022/10/29 05:02:51;;;;;;;;;;;13.90;97.60;;;;;;5007535;28;1080;-64
2022/10/29 05:05:20;;;;;;;;;;;13.90;97.80;;;;;;5006470;28;1907;-64
2022/10/29 05:07:48;;;;;;;;;;;14.00;97.80;;;;;;5008178;28;965;-64
2022/10/29 05:10:17;;;;;;;;;;;14.10;97.80;;;;;;5009589;28;1021;-63
2022/10/29 05:12:45;;;;;;;;;;;14.00;98.00;;;;;;5011720;28;1077;-62
2022/10/29 05:15:13;;;;;;;;;;;14.10;97.90;;;;;;5011465;28;1952;-66
2022/10/29 05:17:40;;;;;;;;;;;14.20;98.00;;;;;;5005566;28;2212;-67
2022/10/29 05:20:08;;;;;;;;;;;14.40;97.90;;;;;;5006125;28;2275;-70
2022/10/29 05:22:36;;;;;;;;;;;14.40;97.70;;;;;;5008233;28;2319;-69
2022/10/29 05:25:04;;;;;;;;;;;14.40;97.50;;;;;;5016993;28;1005;-68
2022/10/29 05:27:33;;;;;;;;;;;14.40;97.60;;;;;;5008885;28;1898;-67
2022/10/29 05:30:00;;;;;;;;;;;14.50;97.50;;;;;;5005134;28;1079;-68
2022/10/29 05:32:28;;;;;;;;;;;14.60;97.30;;;;;;5012245;28;1260;-68
2022/10/29 05:34:56;;;;;;;;;;;14.50;97.20;;;;;;5009286;28;998;-68
2022/10/29 05:37:26;;;;;;;;;;;14.70;97.20;;;;;;5011894;28;1193;-67
2022/10/29 05:39:54;;;;;;;;;;;14.70;97.20;;;;;;5006372;28;2284;-67
2022/10/29 05:42:21;;;;;;;;;;;14.60;97.00;;;;;;5009880;28;2130;-67
2022/10/29 05:44:50;;;;;;;;;;;14.70;97.10;;;;;;5009074;28;1013;-67
2022/10/29 05:47:18;;;;;;;;;;;14.70;96.90;;;;;;5011932;28;2017;-67
2022/10/29 05:49:45;;;;;;;;;;;14.50;97.00;;;;;;5011829;28;1085;-68
2022/10/29 05:52:13;;;;;;;;;;;14.50;97.30;;;;;;5005478;28;1304;-68
2022/10/29 05:54:40;;;;;;;;;;;14.50;97.20;;;;;;5011058;28;2287;-69
2022/10/29 05:57:08;;;;;;;;;;;14.50;97.30;;;;;;5011121;28;2252;-68
2022/10/29 05:59:36;;;;;;;;;;;14.50;97.20;;;;;;5011702;28;2661;-68
2022/10/29 06:02:05;;;;;;;;;;;14.50;97.30;;;;;;5007466;28;2175;-68
2022/10/29 06:04:33;;;;;;;;;;;14.50;97.20;;;;;;5004933;28;1125;-69
2022/10/29 06:07:01;;;;;;;;;;;14.60;97.20;;;;;;5015872;28;2201;-67
2022/10/29 06:09:29;;;;;;;;;;;14.60;97.30;;;;;;5008801;28;2009;-68
2022/10/29 06:11:57;;;;;;;;;;;14.60;97.30;;;;;;5009493;28;2233;-69
2022/10/29 06:14:25;;;;;;;;;;;14.50;97.40;;;;;;5021594;28;2276;-69
2022/10/29 06:16:52;;;;;;;;;;;14.50;97.40;;;;;;5015974;28;1922;-69
2022/10/29 06:19:21;;;;;;;;;;;14.40;97.30;;;;;;5009515;28;2206;-68
2022/10/29 06:21:49;;;;;;;;;;;14.40;97.50;;;;;;5013880;28;2221;-69
2022/10/29 06:24:16;;;;;;;;;;;14.30;97.50;;;;;;5012130;28;1109;-68
2022/10/29 06:26:44;;;;;;;;;;;14.20;97.40;;;;;;5005855;28;2003;-69
2022/10/29 06:29:11;;;;;;;;;;;14.10;97.50;;;;;;5009915;28;2348;-68
2022/10/29 06:31:39;;;;;;;;;;;14.10;97.80;;;;;;5007446;28;2131;-69
2022/10/29 06:34:07;;;;;;;;;;;14.10;97.90;;;;;;5007264;28;2323;-70
2022/10/29 06:36:36;;;;;;;;;;;14.10;97.90;;;;;;5017848;28;2223;-70
2022/10/29 06:39:03;;;;;;;;;;;14.10;98.00;;;;;;5012722;28;2095;-69
2022/10/29 06:41:31;;;;;;;;;;;14.10;98.10;;;;;;5003731;28;2248;-72
2022/10/29 06:43:58;;;;;;;;;;;14.10;98.10;;;;;;5014406;28;2145;-69
2022/10/29 06:46:26;;;;;;;;;;;14.20;98.20;;;;;;5018648;28;2201;-70
2022/10/29 06:48:54;;;;;;;;;;;14.30;98.10;;;;;;5014755;28;1061;-69
2022/10/29 06:51:22;;;;;;;;;;;14.30;97.90;;;;;;5013869;28;2476;-70
2022/10/29 06:53:56;;;;;;;;;;;14.30;97.70;;;;;;5006492;28;2169;-70
2022/10/29 06:56:23;;;;;;;;;;;14.30;97.90;;;;;;5010033;28;2149;-69
2022/10/29 06:58:51;;;;;;;;;;;14.40;97.90;;;;;;5016045;28;1005;-69
2022/10/29 07:01:18;;;;;;;;;;;14.40;97.60;;;;;;5005752;28;2209;-70
2022/10/29 07:03:46;;;;;;;;;;;14.50;97.60;;;;;;5008540;28;981;-64
2022/10/29 07:06:14;;;;;;;;;;;14.50;97.30;;;;;;5013188;28;1910;-69
2022/10/29 07:08:41;;;;;;;;;;;14.60;97.30;;;;;;5013226;28;2220;-66
2022/10/29 07:11:10;;;;;;;;;;;14.60;97.10;;;;;;5010931;28;2229;-70
2022/10/29 07:13:38;;;;;;;;;;;14.60;97.00;;;;;;5012075;28;1145;-65
2022/10/29 07:16:06;;;;;;;;;;;14.70;96.90;;;;;;5010304;28;2146;-64
2022/10/29 07:18:34;;;;;;;;;;;14.60;96.90;;;;;;5008909;28;2244;-62
2022/10/29 07:21:02;;;;;;;;;;;14.50;97.00;;;;;;5009311;28;1215;-63
2022/10/29 07:23:30;;;;;;;;;;;14.50;97.10;;;;;;5017177;28;981;-66
2022/10/29 07:25:57;;;;;;;;;;;14.70;97.10;;;;;;5013500;28;2126;-63
2022/10/29 07:28:26;;;;;;;;;;;14.80;97.00;;;;;;5015717;28;2256;-62
2022/10/29 07:30:58;;;;;;;;;;;15.00;96.70;;;;;;5010056;28;1206;-63
2022/10/29 07:33:27;;;;;;;;;;;14.90;96.40;;;;;;5015604;28;2212;-62
2022/10/29 07:35:56;;;;;;;;;;;15.00;96.60;;;;;;5014991;28;2074;-62
2022/10/29 07:38:24;;;;;;;;;;;15.00;96.50;;;;;;5007133;28;2926;-63
2022/10/29 07:40:51;;;;;;;;;;;15.10;96.30;;;;;;5009257;28;2292;-64
2022/10/29 07:43:20;;;;;;;;;;;15.20;96.50;;;;;;5010151;28;1173;-62
2022/10/29 07:45:49;;;;;;;;;;;15.30;96.00;;;;;;5020400;28;1120;-62
2022/10/29 07:48:17;;;;;;;;;;;15.30;96.00;;;;;;5018447;28;1993;-65
2022/10/29 07:50:45;;;;;;;;;;;15.20;95.90;;;;;;5010392;28;2221;-64
2022/10/29 07:53:13;;;;;;;;;;;15.30;96.30;;;;;;5013753;28;2519;-63
2022/10/29 07:55:40;;;;;;;;;;;15.30;95.80;;;;;;5012737;28;2015;-63
2022/10/29 07:58:10;;;;;;;;;;;15.30;96.00;;;;;;5014383;28;1018;-64
2022/10/29 08:00:39;;;;;;;;;;;15.40;95.50;;;;;;5009729;28;2153;-63
2022/10/29 08:03:08;;;;;;;;;;;15.40;95.90;;;;;;5010519;28;2201;-63
2022/10/29 08:05:36;;;;;;;;;;;15.30;95.80;;;;;;5008363;28;2486;-62
2022/10/29 08:08:04;;;;;;;;;;;15.20;95.90;;;;;;5003930;28;2117;-65
2022/10/29 08:10:32;;;;;;;;;;;15.40;95.60;;;;;;5006683;28;1339;-64
2022/10/29 08:13:01;;;;;;;;;;;15.40;95.50;;;;;;5007818;28;1101;-62
2022/10/29 08:15:30;;;;;;;;;;;15.50;95.30;;;;;;5003548;28;1025;-63
2022/10/29 08:17:57;;;;;;;;;;;15.70;95.20;;;;;;5004357;28;985;-65
2022/10/29 08:20:27;;;;;;;;;;;15.80;94.90;;;;;;5004767;28;2146;-64
2022/10/29 08:22:55;;;;;;;;;;;15.70;95.00;;;;;;5009541;28;2363;-64
2022/10/29 08:25:24;;;;;;;;;;;15.70;94.80;;;;;;5004173;28;1524;-64
2022/10/29 08:27:59;;;;;;;;;;;15.80;94.70;;;;;;5010041;28;2789;-64
2022/10/29 08:30:27;;;;;;;;;;;15.90;94.50;;;;;;5007287;28;2299;-63
2022/10/29 08:32:54;;;;;;;;;;;16.00;94.40;;;;;;5007625;28;2402;-62
2022/10/29 08:35:22;;;;;;;;;;;15.60;94.60;;;;;;5009241;28;2213;-64
2022/10/29 08:37:51;;;;;;;;;;;15.80;94.80;;;;;;5008750;28;1068;-63
2022/10/29 08:40:25;;;;;;;;;;;15.90;94.50;;;;;;5011345;28;1304;-63
2022/10/29 08:42:59;;;;;;;;;;;16.00;94.50;;;;;;5007720;28;1009;-65
2022/10/29 08:45:31;;;;;;;;;;;16.00;94.10;;;;;;5008875;28;2129;-63
2022/10/29 08:48:20;;;;;;;;;;;16.00;94.40;;;;;;5008449;28;2185;-64
2022/10/29 08:50:51;;;;;;;;;;;16.00;94.40;;;;;;5007901;28;1754;-63
2022/10/29 08:53:21;;;;;;;;;;;16.00;94.20;;;;;;5009668;28;1089;-63
2022/10/29 08:55:52;;;;;;;;;;;16.10;93.90;;;;;;5008306;28;2161;-64
2022/10/29 08:58:23;;;;;;;;;;;15.90;94.40;;;;;;5008731;28;1080;-69
2022/10/29 09:00:54;;;;;;;;;;;16.00;94.50;;;;;;5000933;28;1355;-63
2022/10/29 09:03:21;;;;;;;;;;;16.00;94.30;;;;;;5004624;28;1012;-63
2022/10/29 09:05:50;;;;;;;;;;;16.10;93.80;;;;;;5004396;28;970;-63
2022/10/29 09:08:26;;;;;;;;;;;16.10;94.10;;;;;;5004046;28;2209;-65
2022/10/29 09:10:54;;;;;;;;;;;16.00;94.10;;;;;;5002651;28;1318;-64
2022/10/29 09:13:38;;;;;;;;;;;16.10;93.60;;;;;;5006624;28;1088;-63
2022/10/29 09:16:14;;;;;;;;;;;15.90;93.90;;;;;;5007554;28;1076;-63
2022/10/29 09:18:47;;;;;;;;;;;15.90;94.00;;;;;;5007734;28;2283;-63
2022/10/29 09:21:21;;;;;;;;;;;16.20;94.20;;;;;;5008499;28;1359;-64
2022/10/29 09:23:57;;;;;;;;;;;16.00;93.70;;;;;;5008033;28;2134;-63
2022/10/29 09:26:29;;;;;;;;;;;16.20;93.60;;;;;;5005864;28;1151;-63
2022/10/29 09:29:04;;;;;;;;;;;16.40;93.70;;;;;;5008883;28;1906;-62
2022/10/29 09:31:37;;;;;;;;;;;16.60;93.10;;;;;;5012799;28;1308;-62
2022/10/29 09:34:09;;;;;;;;;;;16.80;93.20;;;;;;5011631;28;1001;-68
2022/10/29 09:36:36;;;;;;;;;;;17.10;92.70;;;;;;5010359;28;1136;-70
2022/10/29 09:39:11;;;;;;;;;;;16.90;92.60;;;;;;5004804;28;981;-70
2022/10/29 09:41:40;;;;;;;;;;;17.00;92.50;;;;;;5018936;28;2205;-70
2022/10/29 09:44:14;;;;;;;;;;;17.00;92.50;;;;;;5022441;28;976;-70
2022/10/29 09:46:47;;;;;;;;;;;17.10;92.50;;;;;;5023494;28;1140;-73
2022/10/29 09:49:20;;;;;;;;;;;17.20;92.70;;;;;;5028336;28;1989;-76
2022/10/29 09:51:51;;;;;;;;;;;17.40;92.60;;;;;;5025922;28;1412;-73
2022/10/29 09:54:20;;;;;;;;;;;17.50;92.50;;;;;;5024127;28;1491;-73
2022/10/29 09:56:47;;;;;;;;;;;17.60;91.90;;;;;;5016838;28;1495;-74
2022/10/29 09:59:25;;;;;;;;;;;17.60;92.30;;;;;;5010022;28;1050;-73
2022/10/29 10:01:53;;;;;;;;;;;17.40;92.20;;;;;;5009081;28;1304;-73
2022/10/29 10:04:23;;;;;;;;;;;17.30;92.10;;;;;;5014281;28;1029;-74
2022/10/29 10:07:07;;;;;;;;;;;17.30;92.30;;;;;;5014157;28;1088;-75
2022/10/29 10:09:51;;;;;;;;;;;17.40;92.10;;;;;;5015970;28;2011;-75
2022/10/29 10:12:20;;;;;;;;;;;17.40;92.30;;;;;;5020757;28;1259;-74
2022/10/29 10:14:47;;;;;;;;;;;17.30;92.30;;;;;;5021285;28;990;-74
2022/10/29 10:17:15;;;;;;;;;;;17.30;92.20;;;;;;5015044;28;1081;-75
2022/10/29 10:19:43;;;;;;;;;;;17.30;92.50;;;;;;5012445;28;1082;-74
2022/10/29 10:22:18;;;;;;;;;;;17.30;92.40;;;;;;5009205;28;1265;-76
2022/10/29 10:24:46;;;;;;;;;;;17.30;92.30;;;;;;5012404;28;1114;-74
2022/10/29 10:27:29;;;;;;;;;;;17.40;92.60;;;;;;5011521;28;962;-75
2022/10/29 10:30:11;;;;;;;;;;;17.30;92.40;;;;;;5006549;28;1918;-76
2022/10/29 10:32:38;;;;;;;;;;;17.40;92.50;;;;;;5018867;28;1351;-76
2022/10/29 10:35:21;;;;;;;;;;;17.30;92.30;;;;;;5015160;28;1101;-76
2022/10/29 10:37:49;;;;;;;;;;;17.30;92.40;;;;;;5017272;28;1157;-75
2022/10/29 10:40:21;;;;;;;;;;;17.20;92.50;;;;;;5014327;28;1216;-74
2022/10/29 10:42:52;;;;;;;;;;;17.20;92.40;;;;;;5013338;28;1109;-74
2022/10/29 10:45:23;;;;;;;;;;;17.10;92.50;;;;;;5017451;28;1381;-76
2022/10/29 10:47:56;;;;;;;;;;;17.10;92.70;;;;;;5019899;28;1488;-76
2022/10/29 10:50:26;;;;;;;;;;;17.20;92.60;;;;;;5015593;28;1914;-75
2022/10/29 10:52:55;;;;;;;;;;;17.20;92.60;;;;;;5012458;28;1081;-74
2022/10/29 10:55:26;;;;;;;;;;;17.20;92.80;;;;;;5011277;28;1081;-75
2022/10/29 10:57:58;;;;;;;;;;;17.30;92.70;;;;;;5012936;28;1033;-75
2022/10/29 11:00:26;;;;;;;;;;;17.20;92.40;;;;;;5005365;28;1277;-74
2022/10/29 11:02:56;;;;;;;;;;;17.30;92.50;;;;;;5011033;28;990;-74
2022/10/29 11:05:28;;;;;;;;;;;17.40;92.80;;;;;;5008476;28;1085;-75
2022/10/29 11:07:58;;;;;;;;;;;17.50;92.60;;;;;;5006523;28;1041;-76
2022/10/29 11:10:30;;;;;;;;;;;17.60;92.50;;;;;;5007068;28;1899;-75
2022/10/29 11:13:00;;;;;;;;;;;17.70;92.50;;;;;;5008356;28;1895;-77
2022/10/29 11:15:33;;;;;;;;;;;17.70;92.40;;;;;;5005826;28;1085;-75
2022/10/29 11:18:04;;;;;;;;;;;17.70;92.30;;;;;;5010453;28;1034;-74
2022/10/29 11:20:34;;;;;;;;;;;17.70;92.30;;;;;;5006880;28;1419;-75
2022/10/29 11:23:11;;;;;;;;;;;17.70;92.40;;;;;;5015327;28;1163;-74
2022/10/29 11:25:41;;;;;;;;;;;17.80;92.40;;;;;;5010175;28;1685;-75
2022/10/29 11:28:15;;;;;;;;;;;17.80;92.30;;;;;;5012077;28;1096;-74
2022/10/29 11:30:48;;;;;;;;;;;17.90;92.20;;;;;;5011908;28;1981;-73
2022/10/29 11:33:18;;;;;;;;;;;18.00;92.00;;;;;;5013521;28;1264;-75
2022/10/29 11:35:49;;;;;;;;;;;18.10;91.90;;;;;;5009000;28;1022;-73
2022/10/29 11:38:18;;;;;;;;;;;17.90;91.90;;;;;;5003477;28;1064;-73
2022/10/29 11:40:49;;;;;;;;;;;17.90;91.80;;;;;;5008845;28;1281;-73
2022/10/29 11:43:20;;;;;;;;;;;17.90;91.90;;;;;;5007795;28;1089;-73
2022/10/29 11:45:59;;;;;;;;;;;18.00;92.20;;;;;;5008543;28;1005;-74
2022/10/29 11:48:32;;;;;;;;;;;18.00;92.20;;;;;;5009335;28;1097;-74
2022/10/29 11:51:04;;;;;;;;;;;18.10;92.10;;;;;;5010643;28;1902;-73
2022/10/29 11:53:40;;;;;;;;;;;18.20;92.00;;;;;;5021404;28;1083;-73
2022/10/29 11:56:11;;;;;;;;;;;18.20;91.90;;;;;;5019483;28;1591;-73
2022/10/29 11:58:45;;;;;;;;;;;18.20;92.00;;;;;;5015623;28;1557;-72
2022/10/29 12:01:16;;;;;;;;;;;18.20;92.00;;;;;;5012052;28;1290;-73
2022/10/29 12:03:51;;;;;;;;;;;18.20;92.10;;;;;;5011981;28;1060;-75
2022/10/29 12:06:23;;;;;;;;;;;18.30;92.10;;;;;;5007660;28;1074;-75
2022/10/29 12:09:01;;;;;;;;;;;18.30;92.00;;;;;;5023221;28;1029;-73
2022/10/29 12:11:33;;;;;;;;;;;18.40;91.70;;;;;;5016009;28;1520;-75
2022/10/29 12:14:17;;;;;;;;;;;18.50;91.60;;;;;;5007900;28;1005;-75
2022/10/29 12:16:49;;;;;;;;;;;18.60;91.40;;;;;;5002583;28;1044;-76
2022/10/29 12:19:22;;;;;;;;;;;18.60;91.50;;;;;;5010356;28;1037;-74
2022/10/29 12:21:54;;;;;;;;;;;18.60;91.60;;;;;;5014692;28;1246;-75
2022/10/29 12:24:26;;;;;;;;;;;18.60;91.60;;;;;;5011211;28;1692;-74
2022/10/29 12:26:58;;;;;;;;;;;18.70;91.60;;;;;;5009462;28;1081;-74
2022/10/29 12:29:32;;;;;;;;;;;18.80;91.20;;;;;;5009855;28;1906;-74
2022/10/29 12:32:04;;;;;;;;;;;19.10;91.20;;;;;;5007070;28;1407;-75
2022/10/29 12:34:35;;;;;;;;;;;18.90;91.20;;;;;;5017199;28;1061;-74
2022/10/29 12:37:09;;;;;;;;;;;18.90;91.10;;;;;;5013539;28;1048;-74
2022/10/29 12:39:41;;;;;;;;;;;19.00;91.00;;;;;;5015084;28;1076;-75
2022/10/29 12:42:12;;;;;;;;;;;19.00;90.90;;;;;;5016455;28;1304;-78
2022/10/29 12:44:44;;;;;;;;;;;19.10;90.90;;;;;;5012132;28;1080;-76
2022/10/29 12:47:15;;;;;;;;;;;19.10;90.60;;;;;;5008794;28;1127;-75
2022/10/29 12:49:47;;;;;;;;;;;19.00;90.60;;;;;;5004789;28;1883;-75
2022/10/29 12:52:17;;;;;;;;;;;19.00;90.80;;;;;;5003854;28;1319;-75
2022/10/29 12:54:46;;;;;;;;;;;19.10;90.90;;;;;;5010912;28;1370;-75
2022/10/29 12:57:21;;;;;;;;;;;19.00;90.90;;;;;;5011304;28;1156;-75
2022/10/29 12:59:50;;;;;;;;;;;19.00;91.00;;;;;;5009030;28;1006;-75
2022/10/29 13:02:19;;;;;;;;;;;19.10;91.10;;;;;;5011755;28;1227;-74
2022/10/29 13:05:06;;;;;;;;;;;19.00;91.00;;;;;;5003224;28;1024;-75
2022/10/29 13:07:34;;;;;;;;;;;19.00;90.90;;;;;;5005972;28;1005;-74
2022/10/29 13:10:20;;;;;;;;;;;19.10;90.60;;;;;;5003767;28;1895;-75
2022/10/29 13:12:59;;;;;;;;;;;19.10;90.60;;;;;;5003454;28;1034;-75
2022/10/29 13:15:31;;;;;;;;;;;19.10;90.60;;;;;;5008061;28;1069;-76
2022/10/29 13:18:01;;;;;;;;;;;19.20;90.60;;;;;;5008706;28;977;-74
2022/10/29 13:20:34;;;;;;;;;;;19.10;90.50;;;;;;5003585;28;1221;-74
2022/10/29 13:23:02;;;;;;;;;;;19.10;90.60;;;;;;5007171;28;1038;-75
2022/10/29 13:25:47;;;;;;;;;;;19.10;90.40;;;;;;5003114;28;1153;-74
2022/10/29 13:28:33;;;;;;;;;;;19.00;90.30;;;;;;5008888;28;1013;-73
2022/10/29 13:31:16;;;;;;;;;;;18.90;90.30;;;;;;5009831;28;1914;-74
2022/10/29 13:33:51;;;;;;;;;;;19.00;90.50;;;;;;5008289;28;1138;-73
2022/10/29 13:36:36;;;;;;;;;;;19.00;90.70;;;;;;5007785;28;934;-72
2022/10/29 13:39:16;;;;;;;;;;;19.00;91.00;;;;;;5010087;28;997;-71
2022/10/29 13:41:48;;;;;;;;;;;19.00;90.90;;;;;;5006860;28;1328;-71
2022/10/29 13:44:17;;;;;;;;;;;18.90;90.50;;;;;;5003811;28;1009;-71
2022/10/29 13:46:46;;;;;;;;;;;18.90;90.70;;;;;;5009629;28;1559;-70
2022/10/29 13:49:18;;;;;;;;;;;18.80;90.80;;;;;;5007841;28;1143;-71
2022/10/29 13:51:49;;;;;;;;;;;18.80;90.90;;;;;;5008208;28;2078;-74
2022/10/29 13:54:19;;;;;;;;;;;18.80;90.60;;;;;;5007541;28;1028;-71
2022/10/29 13:56:49;;;;;;;;;;;18.80;91.30;;;;;;5006755;28;1444;-72
2022/10/29 13:59:21;;;;;;;;;;;18.70;91.30;;;;;;5007971;28;1504;-72
2022/10/29 14:02:02;;;;;;;;;;;18.70;91.30;;;;;;5010300;28;1292;-72
2022/10/29 14:04:37;;;;;;;;;;;18.70;91.10;;;;;;5013847;28;995;-74
2022/10/29 14:07:10;;;;;;;;;;;18.70;91.20;;;;;;5004070;28;1552;-72
2022/10/29 14:09:42;;;;;;;;;;;18.70;91.30;;;;;;5011518;28;998;-72
2022/10/29 14:12:15;;;;;;;;;;;18.80;91.00;;;;;;5011369;28;1993;-71
2022/10/29 14:14:47;;;;;;;;;;;18.70;91.10;;;;;;5014844;28;1293;-71
2022/10/29 14:17:16;;;;;;;;;;;18.70;91.20;;;;;;5013001;28;1200;-70
2022/10/29 14:19:45;;;;;;;;;;;18.70;91.50;;;;;;5030418;28;1037;-71
2022/10/29 14:22:28;;;;;;;;;;;18.70;91.60;;;;;;5028937;28;1410;-71
2022/10/29 14:24:56;;;;;;;;;;;18.70;91.40;;;;;;5012071;28;1119;-71
2022/10/29 14:27:24;;;;;;;;;;;18.70;91.20;;;;;;5013375;28;1501;-69
2022/10/29 14:29:51;;;;;;;;;;;18.70;91.10;;;;;;5015618;28;1157;-72
2022/10/29 14:32:22;;;;;;;;;;;18.70;91.50;;;;;;5013549;28;1918;-70
2022/10/29 14:34:51;;;;;;;;;;;18.70;91.20;;;;;;5014764;28;1063;-70
2022/10/29 14:37:23;;;;;;;;;;;18.70;91.60;;;;;;5014532;28;1314;-72
2022/10/29 14:39:52;;;;;;;;;;;18.70;91.50;;;;;;5014945;28;1065;-73
2022/10/29 14:42:27;;;;;;;;;;;18.70;91.60;;;;;;5014695;28;1515;-71
2022/10/29 14:44:56;;;;;;;;;;;18.70;91.40;;;;;;5012369;28;1107;-71
2022/10/29 14:47:25;;;;;;;;;;;18.70;91.60;;;;;;5013449;28;1148;-73
2022/10/29 14:50:02;;;;;;;;;;;18.70;91.60;;;;;;5011624;28;1077;-72
2022/10/29 14:52:31;;;;;;;;;;;18.60;91.50;;;;;;5012935;28;1987;-71
2022/10/29 14:55:02;;;;;;;;;;;18.50;91.60;;;;;;5009825;28;1072;-71
2022/10/29 14:57:32;;;;;;;;;;;18.50;91.70;;;;;;5012982;28;1113;-71